METARs

EEEI - Ämari Air Base

EEEI 211350Z 06011KT CAVOK 15/13 Q1024 NOSIG

EEKA - Kärdla

EEKA 220350Z 09012KT 9999 SCT019 13/10 Q1022

EEKE - Kuressaare

EEKE 220354Z AUTO 05010KT 9999NDV BKN011 13/11 Q1018

EEPU - Pärnu

EEPU 211250Z 06008KT 020V110 9999 FEW020 16/12 Q1022

EETN - Lennart Meri Tallinn

EETN 220350Z 08011KT 9999 OVC014 12/10 Q1024 NOSIG

EETU - Tartu

EETU 220350Z AUTO 08009KT 9999 NCD 11/09 Q1023

Sign In

ATC Booking

currently no ATC Bookings...